createdAt,value
2023-04-20T00:00:22.050Z,8.73
2023-04-20T00:01:23.817Z,9.47
2023-04-20T00:02:26.325Z,8.73
2023-04-20T00:03:28.708Z,8.60
2023-04-20T00:04:30.508Z,8.90
2023-04-20T00:05:32.264Z,8.73
2023-04-20T00:06:34.503Z,8.53
2023-04-20T00:07:36.579Z,8.70
2023-04-20T00:08:38.146Z,8.27
2023-04-20T00:09:39.700Z,8.23
2023-04-20T00:10:41.294Z,8.87
2023-04-20T00:11:42.898Z,8.40
2023-04-20T00:12:44.584Z,8.67
2023-04-20T00:13:46.149Z,8.60
2023-04-20T00:14:47.673Z,8.50
2023-04-20T00:15:49.175Z,9.03
2023-04-20T00:16:50.940Z,8.20
2023-04-20T00:17:53.627Z,8.90
2023-04-20T00:18:55.813Z,8.57
2023-04-20T00:19:57.588Z,9.00
2023-04-20T00:20:59.142Z,8.97
2023-04-20T00:22:01.057Z,9.60
2023-04-20T00:23:03.065Z,9.30
2023-04-20T00:24:04.889Z,9.20
2023-04-20T00:25:07.037Z,9.50
2023-04-20T00:26:08.598Z,9.37
2023-04-20T00:27:10.243Z,10.17
2023-04-20T00:28:11.752Z,9.20
2023-04-20T00:29:13.344Z,10.50
2023-04-20T00:30:15.285Z,9.10
2023-04-20T00:31:16.902Z,10.03
2023-04-20T00:32:18.466Z,10.40
2023-04-20T00:33:20.035Z,10.10
2023-04-20T00:34:21.703Z,11.57
2023-04-20T00:35:23.357Z,11.47
2023-04-20T00:36:25.011Z,11.77
2023-04-20T00:37:26.683Z,10.87
2023-04-20T00:38:28.362Z,10.00
2023-04-20T00:39:29.910Z,10.00
2023-04-20T00:40:31.709Z,9.57
2023-04-20T00:41:33.294Z,9.70
2023-04-20T00:42:34.871Z,9.30
2023-04-20T00:43:36.659Z,9.73
2023-04-20T00:44:38.367Z,8.70
2023-04-20T00:45:40.100Z,9.30
2023-04-20T00:46:41.888Z,8.53
2023-04-20T00:47:43.672Z,9.90
2023-04-20T00:48:45.721Z,8.83
2023-04-20T00:49:47.880Z,9.37
2023-04-20T00:50:50.858Z,9.07
2023-04-20T00:51:53.125Z,8.87
2023-04-20T00:52:54.765Z,8.70
2023-04-20T00:53:56.468Z,9.10
2023-04-20T00:54:58.451Z,9.10
2023-04-20T00:56:00.229Z,9.13
2023-04-20T00:57:02.562Z,9.03
2023-04-20T00:58:04.272Z,9.67
2023-04-20T00:59:06.421Z,9.37
2023-04-20T01:00:08.849Z,9.60
2023-04-20T01:01:11.598Z,8.97
2023-04-20T01:02:13.193Z,9.50
2023-04-20T01:03:14.941Z,8.93
2023-04-20T01:04:17.382Z,9.77
2023-04-20T01:05:19.341Z,9.57
2023-04-20T01:06:21.239Z,8.80
2023-04-20T01:07:22.996Z,9.23
2023-04-20T01:08:28.329Z,9.53
2023-04-20T01:09:29.951Z,10.33
2023-04-20T01:10:31.640Z,9.53
2023-04-20T01:11:33.208Z,9.77
2023-04-20T01:12:34.989Z,9.60
2023-04-20T01:13:38.507Z,10.10
2023-04-20T01:14:40.152Z,10.33
2023-04-20T01:15:41.769Z,10.20
2023-04-20T01:16:45.001Z,10.00
2023-04-20T01:17:46.564Z,10.40
2023-04-20T01:18:49.661Z,12.20
2023-04-20T01:19:51.296Z,10.90
2023-04-20T01:20:52.851Z,12.23
2023-04-20T01:21:54.381Z,13.23
2023-04-20T01:22:55.982Z,10.33
2023-04-20T01:23:57.601Z,10.93
2023-04-20T01:24:59.117Z,9.50
2023-04-20T01:26:00.655Z,10.93
2023-04-20T01:27:02.540Z,10.27
2023-04-20T01:28:04.841Z,10.23
2023-04-20T01:29:06.422Z,10.60
2023-04-20T01:30:08.554Z,9.70
2023-04-20T01:31:11.247Z,10.57
2023-04-20T01:32:13.206Z,10.07
2023-04-20T01:33:14.754Z,9.73
2023-04-20T01:34:17.651Z,10.13
2023-04-20T01:35:19.347Z,9.93
2023-04-20T01:36:21.427Z,10.13
2023-04-20T01:37:23.005Z,10.17
2023-04-20T01:38:25.847Z,10.07
2023-04-20T01:39:27.518Z,10.30
2023-04-20T01:40:29.168Z,10.23
2023-04-20T01:41:30.780Z,10.83
2023-04-20T01:42:32.659Z,10.30
2023-04-20T01:43:36.225Z,10.93
2023-04-20T01:44:38.903Z,10.20
2023-04-20T01:45:40.477Z,10.67
2023-04-20T01:46:42.125Z,10.60
2023-04-20T01:47:43.759Z,10.67
2023-04-20T01:48:45.364Z,10.23
2023-04-20T01:49:46.918Z,10.27
2023-04-20T01:50:52.502Z,10.60
2023-04-20T01:51:54.214Z,10.50
2023-04-20T01:52:55.779Z,9.83
2023-04-20T01:53:57.418Z,10.60
2023-04-20T01:54:58.993Z,10.10
2023-04-20T01:56:00.703Z,11.17
2023-04-20T01:57:02.516Z,10.10
2023-04-20T01:58:04.088Z,10.23
2023-04-20T01:59:05.628Z,9.90
2023-04-20T02:00:08.931Z,10.07
2023-04-20T02:01:10.660Z,10.17
2023-04-20T02:02:12.328Z,10.40
2023-04-20T02:03:14.055Z,10.60
2023-04-20T02:04:15.898Z,10.33
2023-04-20T02:05:17.549Z,9.47
2023-04-20T02:06:19.218Z,10.40
2023-04-20T02:07:21.012Z,10.10
2023-04-20T02:08:22.728Z,10.27
2023-04-20T02:09:24.297Z,10.80
2023-04-20T02:10:25.897Z,10.50
2023-04-20T02:11:27.450Z,10.70
2023-04-20T02:12:29.015Z,10.27
2023-04-20T02:13:30.623Z,11.50
2023-04-20T02:14:32.150Z,10.30
2023-04-20T02:15:33.699Z,10.93
2023-04-20T02:16:35.562Z,10.03
2023-04-20T02:17:37.259Z,10.20
2023-04-20T02:18:39.316Z,10.00
2023-04-20T02:19:40.980Z,9.90
2023-04-20T02:20:43.527Z,9.93
2023-04-20T02:21:45.221Z,9.33
2023-04-20T02:22:46.866Z,9.77
2023-04-20T02:23:48.591Z,10.33
2023-04-20T02:24:50.137Z,10.20
2023-04-20T02:25:51.947Z,9.53
2023-04-20T02:26:53.528Z,9.70
2023-04-20T02:27:55.119Z,10.07
2023-04-20T02:28:56.669Z,10.83
2023-04-20T02:29:59.630Z,10.23
2023-04-20T02:31:01.160Z,10.03
2023-04-20T02:32:02.885Z,9.67
2023-04-20T02:33:04.552Z,10.77
2023-04-20T02:34:09.389Z,10.67
2023-04-20T02:35:11.239Z,10.83
2023-04-20T02:36:12.777Z,10.50
2023-04-20T02:37:14.452Z,10.87
2023-04-20T02:38:16.720Z,11.03
2023-04-20T02:39:18.838Z,11.80
2023-04-20T02:40:20.851Z,12.47
2023-04-20T02:41:22.412Z,11.77
2023-04-20T02:42:23.990Z,12.67
2023-04-20T02:43:25.769Z,12.40
2023-04-20T02:44:27.349Z,12.83
2023-04-20T02:45:28.915Z,12.13
2023-04-20T02:46:30.853Z,11.17
2023-04-20T02:47:32.474Z,12.27
2023-04-20T02:48:34.055Z,11.97
2023-04-20T02:49:35.756Z,11.63
2023-04-20T02:50:38.383Z,10.53
2023-04-20T02:51:39.927Z,10.23
2023-04-20T02:52:41.516Z,10.33
2023-04-20T02:53:43.122Z,12.83
2023-04-20T02:54:45.477Z,14.50
2023-04-20T02:55:47.192Z,14.03
2023-04-20T02:56:48.801Z,13.97
2023-04-20T02:57:50.530Z,14.97
2023-04-20T02:58:52.359Z,15.40
2023-04-20T02:59:53.975Z,14.67
2023-04-20T03:01:01.845Z,15.17
2023-04-20T03:02:04.127Z,15.60
2023-04-20T03:03:05.733Z,15.23
2023-04-20T03:04:07.571Z,16.70
2023-04-20T03:05:09.401Z,16.13
2023-04-20T03:06:11.001Z,14.63
2023-04-20T03:07:13.614Z,14.53
2023-04-20T03:08:17.031Z,14.03
2023-04-20T03:09:18.983Z,14.20
2023-04-20T03:10:20.804Z,13.93
2023-04-20T03:11:22.383Z,14.13
2023-04-20T03:12:24.182Z,12.60
2023-04-20T03:13:25.813Z,12.90
2023-04-20T03:14:27.563Z,13.33
2023-04-20T03:15:29.146Z,13.00
2023-04-20T03:16:30.921Z,13.67
2023-04-20T03:17:32.736Z,13.30
2023-04-20T03:18:34.297Z,12.93
2023-04-20T03:19:36.716Z,12.73
2023-04-20T03:20:38.265Z,12.53
2023-04-20T03:21:39.825Z,11.70
2023-04-20T03:22:41.381Z,12.40
2023-04-20T03:23:42.894Z,11.40
2023-04-20T03:24:44.484Z,12.00
2023-04-20T03:25:46.463Z,11.50
2023-04-20T03:26:48.012Z,11.43
2023-04-20T03:27:49.676Z,12.07
2023-04-20T03:28:51.501Z,12.17
2023-04-20T03:29:53.180Z,11.33
2023-04-20T03:30:54.686Z,12.07
2023-04-20T03:31:56.518Z,12.77
2023-04-20T03:32:58.072Z,11.43
2023-04-20T03:33:59.844Z,12.77
2023-04-20T03:35:01.453Z,11.60
2023-04-20T03:36:04.244Z,11.57
2023-04-20T03:37:05.879Z,12.70
2023-04-20T03:38:07.453Z,12.27
2023-04-20T03:39:09.720Z,13.27
2023-04-20T03:40:11.839Z,12.57
2023-04-20T03:41:14.207Z,11.83
2023-04-20T03:42:15.929Z,12.63
2023-04-20T03:43:17.525Z,11.83
2023-04-20T03:44:19.025Z,12.17
2023-04-20T03:45:20.941Z,11.93
2023-04-20T03:46:23.536Z,12.73
2023-04-20T03:47:25.246Z,12.73
2023-04-20T03:48:27.953Z,11.93
2023-04-20T03:49:29.921Z,12.43
2023-04-20T03:50:31.456Z,12.77
2023-04-20T03:51:33.283Z,12.90
2023-04-20T03:52:35.023Z,12.37
2023-04-20T03:53:38.970Z,12.40
2023-04-20T03:54:41.324Z,11.83
2023-04-20T03:55:42.985Z,12.17
2023-04-20T03:56:46.049Z,11.63
2023-04-20T03:57:47.706Z,12.43
2023-04-20T03:58:49.342Z,12.03
2023-04-20T03:59:50.939Z,12.17
2023-04-20T04:00:52.557Z,12.07
2023-04-20T04:01:54.812Z,13.10
2023-04-20T04:02:56.517Z,12.73
2023-04-20T04:03:58.427Z,12.47
2023-04-20T04:05:00.430Z,12.53
2023-04-20T04:06:03.065Z,12.57
2023-04-20T04:07:04.698Z,12.00
2023-04-20T04:08:06.615Z,11.80
2023-04-20T04:09:09.014Z,11.80
2023-04-20T04:10:10.956Z,12.43
2023-04-20T04:11:12.454Z,12.00
2023-04-20T04:12:14.013Z,12.33
2023-04-20T04:13:15.625Z,11.80
2023-04-20T04:14:17.297Z,11.53
2023-04-20T04:15:21.936Z,12.00
2023-04-20T04:16:23.713Z,11.37
2023-04-20T04:17:25.550Z,12.20
2023-04-20T04:18:32.220Z,11.80
2023-04-20T04:19:33.925Z,12.67
2023-04-20T04:20:35.597Z,12.63
2023-04-20T04:21:37.246Z,12.50
2023-04-20T04:22:39.184Z,12.73
2023-04-20T04:23:42.420Z,12.30
2023-04-20T04:24:44.081Z,12.03
2023-04-20T04:25:46.206Z,12.30
2023-04-20T04:26:48.781Z,12.23
2023-04-20T04:27:51.245Z,12.33
2023-04-20T04:28:52.849Z,12.77
2023-04-20T04:29:54.439Z,13.87
2023-04-20T04:30:55.951Z,13.20
2023-04-20T04:31:58.517Z,13.87
2023-04-20T04:33:00.135Z,14.03
2023-04-20T04:34:02.133Z,13.90
2023-04-20T04:35:03.999Z,13.23
2023-04-20T04:36:06.155Z,14.07
2023-04-20T04:37:08.257Z,12.93
2023-04-20T04:38:09.779Z,13.57
2023-04-20T04:39:12.433Z,13.57
2023-04-20T04:40:14.174Z,13.57
2023-04-20T04:41:15.829Z,12.70
2023-04-20T04:42:17.571Z,12.43
2023-04-20T04:43:19.704Z,11.97
2023-04-20T04:44:22.262Z,12.27
2023-04-20T04:45:25.326Z,13.43
2023-04-20T04:46:27.749Z,13.33
2023-04-20T04:47:32.046Z,12.80
2023-04-20T04:48:35.623Z,13.63
2023-04-20T04:49:37.615Z,14.43
2023-04-20T04:50:39.730Z,13.07
2023-04-20T04:51:41.261Z,16.10
2023-04-20T04:52:42.910Z,16.40
2023-04-20T04:53:46.600Z,17.37
2023-04-20T04:54:49.443Z,16.93
2023-04-20T04:55:51.030Z,16.60
2023-04-20T04:56:52.583Z,16.03
2023-04-20T04:57:54.101Z,15.53
2023-04-20T04:58:55.937Z,15.23
2023-04-20T04:59:57.466Z,14.00
2023-04-20T05:00:59.011Z,15.73
2023-04-20T05:02:00.911Z,16.00
2023-04-20T05:03:02.689Z,14.97
2023-04-20T05:04:04.669Z,14.97
2023-04-20T05:05:09.454Z,14.43
2023-04-20T05:06:11.401Z,15.23
2023-04-20T05:07:14.125Z,15.03
2023-04-20T05:08:15.894Z,15.07
2023-04-20T05:09:17.645Z,15.67
2023-04-20T05:10:19.461Z,16.57
2023-04-20T05:11:21.114Z,17.10
2023-04-20T05:12:22.804Z,16.70
2023-04-20T05:13:24.383Z,16.80
2023-04-20T05:14:25.998Z,16.53
2023-04-20T05:15:27.708Z,17.03
2023-04-20T05:16:29.553Z,15.80
2023-04-20T05:17:31.265Z,16.30
2023-04-20T05:18:32.837Z,17.10
2023-04-20T05:19:34.496Z,15.50
2023-04-20T05:20:36.035Z,16.33
2023-04-20T05:21:39.331Z,15.40
2023-04-20T05:22:41.200Z,14.70
2023-04-20T05:23:44.168Z,15.37
2023-04-20T05:24:45.777Z,15.27
2023-04-20T05:25:47.371Z,14.90
2023-04-20T05:26:48.910Z,16.40
2023-04-20T05:27:50.599Z,15.63
2023-04-20T05:28:52.245Z,16.27
2023-04-20T05:29:53.784Z,16.43
2023-04-20T05:30:55.339Z,16.10
2023-04-20T05:31:56.907Z,16.70
2023-04-20T05:32:59.019Z,16.20
2023-04-20T05:34:02.138Z,15.90
2023-04-20T05:35:04.215Z,16.33
2023-04-20T05:36:09.279Z,15.60
2023-04-20T05:37:10.953Z,15.50
2023-04-20T05:38:12.582Z,16.40
2023-04-20T05:39:14.164Z,15.83
2023-04-20T05:40:15.940Z,16.33
2023-04-20T05:41:17.549Z,16.20
2023-04-20T05:42:19.139Z,15.70
2023-04-20T05:43:20.790Z,15.73
2023-04-20T05:44:22.301Z,15.67
2023-04-20T05:45:24.063Z,15.53
2023-04-20T05:46:25.733Z,15.80
2023-04-20T05:47:27.638Z,15.47
2023-04-20T05:48:30.187Z,15.57
2023-04-20T05:49:33.059Z,16.10
2023-04-20T05:50:34.717Z,16.10
2023-04-20T05:51:36.299Z,15.63
2023-04-20T05:52:38.136Z,16.60
2023-04-20T05:53:39.821Z,16.57
2023-04-20T05:54:41.386Z,15.93
2023-04-20T05:55:42.883Z,15.63
2023-04-20T05:56:44.469Z,15.90
2023-04-20T05:57:46.235Z,15.50
2023-04-20T05:58:48.455Z,15.83
2023-04-20T05:59:50.648Z,16.53
2023-04-20T06:00:52.393Z,16.20
2023-04-20T06:01:53.928Z,15.10
2023-04-20T06:02:55.835Z,15.73
2023-04-20T06:03:57.938Z,15.60
2023-04-20T06:05:01.391Z,15.10
2023-04-20T06:06:03.357Z,15.40
2023-04-20T06:07:04.925Z,15.40
2023-04-20T06:08:06.449Z,14.70
2023-04-20T06:09:08.000Z,15.50
2023-04-20T06:10:10.286Z,15.47
2023-04-20T06:11:11.825Z,15.47
2023-04-20T06:12:13.410Z,15.43
2023-04-20T06:13:14.934Z,14.97
2023-04-20T06:14:16.747Z,14.43
2023-04-20T06:15:18.979Z,14.50
2023-04-20T06:16:20.640Z,12.60
2023-04-20T06:17:22.481Z,11.63
2023-04-20T06:18:24.166Z,12.47
2023-04-20T06:19:25.771Z,13.70
2023-04-20T06:20:27.306Z,13.30
2023-04-20T06:21:28.978Z,12.77
2023-04-20T06:22:30.536Z,12.70
2023-04-20T06:23:32.209Z,11.60
2023-04-20T06:24:35.155Z,12.50
2023-04-20T06:25:37.340Z,13.80
2023-04-20T06:26:38.877Z,14.47
2023-04-20T06:27:40.470Z,13.73
2023-04-20T06:28:43.102Z,13.33
2023-04-20T06:29:44.665Z,15.17
2023-04-20T06:30:46.253Z,15.00
2023-04-20T06:31:47.771Z,14.87
2023-04-20T06:32:49.361Z,14.47
2023-04-20T06:33:51.079Z,14.20
2023-04-20T06:34:52.899Z,13.40
2023-04-20T06:35:56.554Z,13.10
2023-04-20T06:36:58.092Z,12.83
2023-04-20T06:38:02.389Z,11.80
2023-04-20T06:39:04.810Z,12.00
2023-04-20T06:40:10.261Z,12.10
2023-04-20T06:41:11.937Z,12.60
2023-04-20T06:42:14.189Z,12.93
2023-04-20T06:43:15.733Z,12.03
2023-04-20T06:44:17.276Z,11.83
2023-04-20T06:45:18.934Z,14.63
2023-04-20T06:46:20.557Z,13.20
2023-04-20T06:47:22.309Z,12.60
2023-04-20T06:48:32.357Z,13.33
2023-04-20T06:49:34.463Z,16.23
2023-04-20T06:50:36.225Z,16.63
2023-04-20T06:51:39.404Z,16.20
2023-04-20T06:52:41.267Z,16.63
2023-04-20T06:53:42.855Z,15.50
2023-04-20T06:54:44.425Z,15.37
2023-04-20T06:55:45.998Z,16.10
2023-04-20T06:56:47.587Z,14.97
2023-04-20T06:57:49.208Z,14.27
2023-04-20T06:58:51.039Z,14.40
2023-04-20T06:59:52.559Z,14.90
2023-04-20T07:00:54.136Z,14.27
2023-04-20T07:01:55.790Z,14.83
2023-04-20T07:02:57.486Z,11.73
2023-04-20T07:03:59.181Z,13.70
2023-04-20T07:05:02.475Z,12.17
2023-04-20T07:06:04.915Z,11.87
2023-04-20T07:07:06.522Z,12.23
2023-04-20T07:08:09.545Z,11.73
2023-04-20T07:09:11.354Z,12.70
2023-04-20T07:10:14.994Z,10.13
2023-04-20T07:11:16.744Z,9.43
2023-04-20T07:12:18.318Z,9.87
2023-04-20T07:13:19.856Z,9.47
2023-04-20T07:14:21.489Z,8.73
2023-04-20T07:15:23.213Z,7.80
2023-04-20T07:16:24.789Z,8.10
2023-04-20T07:17:29.639Z,7.93
2023-04-20T07:18:32.345Z,7.60
2023-04-20T07:19:35.515Z,8.70
2023-04-20T07:20:37.079Z,8.13
2023-04-20T07:21:38.611Z,8.00
2023-04-20T07:22:40.339Z,8.37
2023-04-20T07:23:44.859Z,8.90
2023-04-20T07:24:46.888Z,9.40
2023-04-20T07:25:48.412Z,8.40
2023-04-20T07:26:50.007Z,8.20
2023-04-20T07:27:51.577Z,8.50
2023-04-20T07:28:53.397Z,9.00
2023-04-20T07:29:54.916Z,9.10
2023-04-20T07:30:56.615Z,8.67
2023-04-20T07:31:58.359Z,8.93
2023-04-20T07:33:00.015Z,8.70
2023-04-20T07:34:01.627Z,9.30
2023-04-20T07:35:04.027Z,9.63
2023-04-20T07:36:06.341Z,9.23
2023-04-20T07:37:08.000Z,9.50
2023-04-20T07:38:09.562Z,9.43
2023-04-20T07:39:11.224Z,9.77
2023-04-20T07:40:12.854Z,9.40
2023-04-20T07:41:15.334Z,9.37
2023-04-20T07:42:16.901Z,9.83
2023-04-20T07:43:18.478Z,9.07
2023-04-20T07:44:20.199Z,10.27
2023-04-20T07:45:22.988Z,10.03
2023-04-20T07:46:24.585Z,9.90
2023-04-20T07:47:26.453Z,10.27
2023-04-20T07:48:28.107Z,10.37
2023-04-20T07:49:29.811Z,9.90
2023-04-20T07:50:31.410Z,10.33
2023-04-20T07:51:34.360Z,10.43
2023-04-20T07:52:35.962Z,10.03
2023-04-20T07:53:37.502Z,9.60
2023-04-20T07:54:39.678Z,10.23
2023-04-20T07:55:41.466Z,10.10
2023-04-20T07:56:43.065Z,9.80
2023-04-20T07:57:45.050Z,10.20
2023-04-20T07:58:46.627Z,10.47
2023-04-20T07:59:48.273Z,10.13
2023-04-20T08:00:49.815Z,9.53
2023-04-20T08:01:51.465Z,7.87
2023-04-20T08:02:53.193Z,8.50
2023-04-20T08:03:56.097Z,8.87
2023-04-20T08:04:58.045Z,8.80
2023-04-20T08:05:59.838Z,8.40
2023-04-20T08:07:01.701Z,8.13
2023-04-20T08:08:03.318Z,8.73
2023-04-20T08:09:05.268Z,8.37
2023-04-20T08:10:07.711Z,8.80
2023-04-20T08:11:09.319Z,8.70
2023-04-20T08:12:10.910Z,8.80
2023-04-20T08:13:12.488Z,8.37
2023-04-20T08:14:15.274Z,8.37
2023-04-20T08:15:16.933Z,9.13
2023-04-20T08:16:18.530Z,9.10
2023-04-20T08:17:20.816Z,9.43
2023-04-20T08:18:22.781Z,9.63
2023-04-20T08:19:24.422Z,9.10
2023-04-20T08:20:25.987Z,9.17
2023-04-20T08:21:28.725Z,9.00
2023-04-20T08:22:30.627Z,9.63
2023-04-20T08:23:32.197Z,9.27
2023-04-20T08:24:33.933Z,9.37
2023-04-20T08:25:35.607Z,8.90
2023-04-20T08:26:37.296Z,9.03
2023-04-20T08:27:38.901Z,8.70
2023-04-20T08:28:40.547Z,9.40
2023-04-20T08:29:42.080Z,9.33
2023-04-20T08:30:43.776Z,8.83
2023-04-20T08:31:45.509Z,10.03
2023-04-20T08:32:47.106Z,9.87
2023-04-20T08:33:48.825Z,9.90
2023-04-20T08:34:51.029Z,9.50
2023-04-20T08:35:52.752Z,10.10
2023-04-20T08:36:54.330Z,9.83
2023-04-20T08:37:56.126Z,9.73
2023-04-20T08:39:10.159Z,9.70
2023-04-20T08:40:12.312Z,9.50
2023-04-20T08:41:15.202Z,10.13
2023-04-20T08:42:17.071Z,9.43
2023-04-20T08:43:19.450Z,9.03
2023-04-20T08:44:23.546Z,8.93
2023-04-20T08:45:26.124Z,9.67
2023-04-20T08:46:28.657Z,9.00
2023-04-20T08:47:33.007Z,9.20
2023-04-20T08:48:37.202Z,8.70
2023-04-20T08:49:42.157Z,9.10
2023-04-20T08:50:44.381Z,9.33
2023-04-20T08:51:47.667Z,9.00
2023-04-20T08:52:49.199Z,8.93
2023-04-20T08:53:51.483Z,9.10
2023-04-20T08:54:56.841Z,9.63
2023-04-20T08:55:59.868Z,9.20
2023-04-20T08:57:01.921Z,8.83
2023-04-20T08:58:03.526Z,8.77
2023-04-20T08:59:06.073Z,9.10
2023-04-20T09:00:13.029Z,8.40
2023-04-20T09:01:19.901Z,9.00
2023-04-20T09:02:24.793Z,8.53
2023-04-20T09:03:38.173Z,8.63
2023-04-20T09:04:41.205Z,8.60
2023-04-20T09:05:44.437Z,7.90
2023-04-20T09:06:47.697Z,9.30
2023-04-20T09:07:53.760Z,7.93
2023-04-20T09:08:56.185Z,8.77
2023-04-20T09:09:59.108Z,9.53
2023-04-20T09:11:00.650Z,8.77
2023-04-20T09:12:07.212Z,8.57
2023-04-20T09:13:20.845Z,9.13
2023-04-20T09:14:22.546Z,8.43
2023-04-20T09:15:31.797Z,9.20
2023-04-20T09:16:34.901Z,8.80
2023-04-20T09:17:40.193Z,9.20
2023-04-20T09:18:52.361Z,8.73
2023-04-20T09:19:54.243Z,9.40
2023-04-20T09:20:55.811Z,8.73
2023-04-20T09:22:00.498Z,8.77
2023-04-20T09:23:15.530Z,8.20
2023-04-20T09:24:17.483Z,8.40
2023-04-20T09:25:20.175Z,8.37
2023-04-20T09:26:21.890Z,9.17
2023-04-20T09:27:23.778Z,9.00
2023-04-20T09:28:36.455Z,8.87
2023-04-20T09:29:37.974Z,9.33
2023-04-20T09:30:43.460Z,8.67
2023-04-20T09:31:45.286Z,9.17
2023-04-20T09:32:47.271Z,9.73
2023-04-20T09:34:02.033Z,9.37
2023-04-20T09:35:04.376Z,8.43
2023-04-20T09:36:06.350Z,9.57
2023-04-20T09:37:09.641Z,9.50
2023-04-20T09:38:15.821Z,8.70
2023-04-20T09:39:19.907Z,8.93
2023-04-20T09:40:23.888Z,9.20
2023-04-20T09:41:25.544Z,8.87
2023-04-20T09:42:28.830Z,9.03
2023-04-20T09:43:31.329Z,8.60
2023-04-20T09:44:33.408Z,9.27
2023-04-20T09:45:38.120Z,8.40
2023-04-20T09:46:41.620Z,9.30
2023-04-20T09:47:44.465Z,8.97
2023-04-20T09:48:46.902Z,8.93
2023-04-20T09:49:48.544Z,9.20
2023-04-20T09:50:51.482Z,9.10
2023-04-20T09:51:54.311Z,8.77
2023-04-20T09:52:56.853Z,8.47
2023-04-20T09:54:01.130Z,8.53
2023-04-20T09:55:04.828Z,8.37
2023-04-20T09:56:07.118Z,9.37
2023-04-20T09:57:09.810Z,8.70
2023-04-20T09:58:11.627Z,8.90
2023-04-20T09:59:13.914Z,8.50
2023-04-20T10:00:15.913Z,8.73
2023-04-20T10:01:17.723Z,8.13
2023-04-20T10:02:19.461Z,7.97
2023-04-20T10:03:21.803Z,8.70
2023-04-20T10:04:24.296Z,8.33
2023-04-20T10:05:36.871Z,7.83
2023-04-20T10:06:38.837Z,8.50
2023-04-20T10:07:40.545Z,8.33
2023-04-20T10:08:42.438Z,7.97
2023-04-20T10:09:44.050Z,7.83
2023-04-20T10:10:48.049Z,8.10
2023-04-20T10:11:53.486Z,8.60
2023-04-20T10:12:59.197Z,7.50
2023-04-20T10:14:13.817Z,8.33
2023-04-20T10:15:15.587Z,7.73
2023-04-20T10:16:21.511Z,7.73
2023-04-20T10:17:31.004Z,7.13
2023-04-20T10:18:32.714Z,7.90
2023-04-20T10:19:45.853Z,7.57
2023-04-20T10:20:47.524Z,7.50
2023-04-20T10:21:51.018Z,7.87
2023-04-20T10:22:53.775Z,7.43
2023-04-20T10:23:56.201Z,6.87
2023-04-20T10:24:57.828Z,7.33
2023-04-20T10:26:00.994Z,6.77
2023-04-20T10:27:04.115Z,7.90
2023-04-20T10:28:09.741Z,6.83
2023-04-20T10:29:24.700Z,7.53
2023-04-20T10:30:27.394Z,7.57
2023-04-20T10:31:37.328Z,6.90
2023-04-20T10:32:39.108Z,7.47
2023-04-20T10:33:54.706Z,7.50
2023-04-20T10:35:11.301Z,7.67
2023-04-20T10:36:23.173Z,7.77
2023-04-20T10:37:24.934Z,7.80
2023-04-20T10:38:31.068Z,7.20
2023-04-20T10:39:32.956Z,7.60
2023-04-20T10:40:34.609Z,7.10
2023-04-20T10:41:37.244Z,7.13
2023-04-20T10:42:45.668Z,6.90
2023-04-20T10:43:47.252Z,7.17
2023-04-20T10:44:53.200Z,7.47
2023-04-20T10:45:54.748Z,6.63
2023-04-20T10:46:57.089Z,7.10
2023-04-20T10:47:58.713Z,6.80
2023-04-20T10:49:02.014Z,6.40
2023-04-20T10:50:16.667Z,7.00
2023-04-20T10:51:18.676Z,6.77
2023-04-20T10:52:41.446Z,6.60
2023-04-20T10:53:43.026Z,6.60
2023-04-20T10:54:44.638Z,6.73
2023-04-20T10:55:46.418Z,6.47
2023-04-20T10:56:52.404Z,6.80
2023-04-20T10:57:54.094Z,6.63
2023-04-20T10:59:07.265Z,6.97
2023-04-20T11:00:20.376Z,6.60
2023-04-20T11:01:22.346Z,7.10
2023-04-20T11:02:24.404Z,6.43
2023-04-20T11:03:29.015Z,6.77
2023-04-20T11:04:32.734Z,6.60
2023-04-20T11:05:34.897Z,7.43
2023-04-20T11:06:40.723Z,6.67
2023-04-20T11:07:54.930Z,6.83
2023-04-20T11:08:56.801Z,6.37
2023-04-20T11:09:58.314Z,6.70
2023-04-20T11:10:59.928Z,7.00
2023-04-20T11:12:05.977Z,6.63
2023-04-20T11:13:08.195Z,7.03
2023-04-20T11:14:11.362Z,7.00
2023-04-20T11:15:13.907Z,6.87
2023-04-20T11:16:16.951Z,6.57
2023-04-20T11:17:18.776Z,7.30
2023-04-20T11:18:21.537Z,7.87
2023-04-20T11:19:31.544Z,7.70
2023-04-20T11:20:33.120Z,6.80
2023-04-20T11:21:42.721Z,7.10
2023-04-20T11:22:44.724Z,7.60
2023-04-20T11:23:46.794Z,7.37
2023-04-20T11:24:48.401Z,7.07
2023-04-20T11:25:51.414Z,7.27
2023-04-20T11:26:54.536Z,7.07
2023-04-20T11:28:07.446Z,7.60
2023-04-20T11:29:09.221Z,7.33
2023-04-20T11:30:11.079Z,7.87
2023-04-20T11:31:19.074Z,7.30
2023-04-20T11:32:20.960Z,7.37
2023-04-20T11:33:29.953Z,7.87
2023-04-20T11:34:32.210Z,7.27
2023-04-20T11:35:38.257Z,7.23
2023-04-20T11:36:39.839Z,7.57
2023-04-20T11:37:54.457Z,7.37
2023-04-20T11:38:56.101Z,7.60
2023-04-20T11:40:01.334Z,7.40
2023-04-20T11:41:07.808Z,7.50
2023-04-20T11:42:09.535Z,7.33
2023-04-20T11:43:11.120Z,7.40
2023-04-20T11:44:12.665Z,7.50
2023-04-20T11:45:14.317Z,7.70
2023-04-20T11:46:18.197Z,6.70
2023-04-20T11:47:19.870Z,7.30
2023-04-20T11:48:22.603Z,7.67
2023-04-20T11:49:25.895Z,7.33
2023-04-20T11:50:27.750Z,7.60
2023-04-20T11:51:29.270Z,7.23
2023-04-20T11:52:30.882Z,6.60
2023-04-20T11:53:32.452Z,7.57
2023-04-20T11:54:35.101Z,7.27
2023-04-20T11:55:36.980Z,7.43
2023-04-20T11:56:46.997Z,7.20
2023-04-20T11:57:48.596Z,7.20
2023-04-20T11:58:51.019Z,6.83
2023-04-20T11:59:52.665Z,7.70
2023-04-20T12:00:54.214Z,7.27
2023-04-20T12:01:55.827Z,6.80
2023-04-20T12:02:57.515Z,7.27
2023-04-20T12:04:01.994Z,6.97
2023-04-20T12:05:04.295Z,6.67
2023-04-20T12:06:05.962Z,7.00
2023-04-20T12:07:07.830Z,7.00
2023-04-20T12:08:09.695Z,6.40
2023-04-20T12:09:11.278Z,7.23
2023-04-20T12:10:12.923Z,7.00
2023-04-20T12:11:16.907Z,8.00
2023-04-20T12:12:18.530Z,7.00
2023-04-20T12:13:20.113Z,6.90
2023-04-20T12:14:21.627Z,7.40
2023-04-20T12:15:23.250Z,7.27
2023-04-20T12:16:24.856Z,6.73
2023-04-20T12:17:26.766Z,6.77
2023-04-20T12:18:28.285Z,7.33
2023-04-20T12:19:30.293Z,6.90
2023-04-20T12:20:31.985Z,7.10
2023-04-20T12:21:33.525Z,6.60
2023-04-20T12:22:35.393Z,7.13
2023-04-20T12:23:37.041Z,7.47
2023-04-20T12:24:38.599Z,7.13
2023-04-20T12:25:40.304Z,7.43
2023-04-20T12:26:41.869Z,7.67
2023-04-20T12:27:43.423Z,7.80
2023-04-20T12:28:45.435Z,7.90
2023-04-20T12:29:47.018Z,8.17
2023-04-20T12:30:48.604Z,8.87
2023-04-20T12:31:50.226Z,8.23
2023-04-20T12:32:51.806Z,9.07
2023-04-20T12:33:53.405Z,7.97
2023-04-20T12:34:55.007Z,7.40
2023-04-20T12:35:56.597Z,8.00
2023-04-20T12:36:58.158Z,7.27
2023-04-20T12:37:59.743Z,7.00
2023-04-20T12:39:01.831Z,6.87
2023-04-20T12:40:06.339Z,6.83
2023-04-20T12:41:08.083Z,7.47
2023-04-20T12:42:09.598Z,7.53
2023-04-20T12:43:11.256Z,6.77
2023-04-20T12:44:13.272Z,6.73
2023-04-20T12:45:14.837Z,6.20
2023-04-20T12:46:16.923Z,6.37
2023-04-20T12:47:18.498Z,6.43
2023-04-20T12:48:20.612Z,7.00
2023-04-20T12:49:22.272Z,7.10
2023-04-20T12:50:24.677Z,6.93
2023-04-20T12:51:27.196Z,6.70
2023-04-20T12:52:29.450Z,6.97
2023-04-20T12:53:31.064Z,7.37
2023-04-20T12:54:32.635Z,7.30
2023-04-20T12:55:34.524Z,6.37
2023-04-20T12:56:36.204Z,7.67
2023-04-20T12:57:38.261Z,6.83
2023-04-20T12:58:39.877Z,6.90
2023-04-20T12:59:41.584Z,7.30
2023-04-20T13:00:43.420Z,7.57
2023-04-20T13:01:45.064Z,7.77
2023-04-20T13:02:46.796Z,7.50
2023-04-20T13:03:51.443Z,8.07
2023-04-20T13:04:53.089Z,7.50
2023-04-20T13:05:54.665Z,7.80
2023-04-20T13:06:56.312Z,7.00
2023-04-20T13:07:57.902Z,8.23
2023-04-20T13:09:01.038Z,7.27
2023-04-20T13:10:02.814Z,8.17
2023-04-20T13:11:04.439Z,7.60
2023-04-20T13:12:06.157Z,7.80
2023-04-20T13:13:07.701Z,7.67
2023-04-20T13:14:09.289Z,8.07
2023-04-20T13:15:13.034Z,8.03
2023-04-20T13:16:14.769Z,8.00
2023-04-20T13:17:16.460Z,8.90
2023-04-20T13:18:18.373Z,9.03
2023-04-20T13:19:20.489Z,8.87
2023-04-20T13:20:22.257Z,8.27
2023-04-20T13:21:23.877Z,8.30
2023-04-20T13:22:25.573Z,8.47
2023-04-20T13:23:27.158Z,8.20
2023-04-20T13:24:28.748Z,8.03
2023-04-20T13:25:34.931Z,8.37
2023-04-20T13:26:37.100Z,8.63
2023-04-20T13:27:38.889Z,8.40
2023-04-20T13:28:40.653Z,8.07
2023-04-20T13:29:42.182Z,8.73
2023-04-20T13:30:44.220Z,8.73
2023-04-20T13:31:47.602Z,8.83
2023-04-20T13:32:49.436Z,8.53
2023-04-20T13:33:54.823Z,9.00
2023-04-20T13:34:56.721Z,8.90
2023-04-20T13:35:58.256Z,8.70
2023-04-20T13:36:59.893Z,8.27
2023-04-20T13:38:01.618Z,8.70
2023-04-20T13:39:03.675Z,8.67
2023-04-20T13:40:07.134Z,7.93